Strasbourg Airport

Airport
ICAO code: 
LFST
IATA Code: 
SXB
Summary
ICAO Region: 
EUR
Territory: 
Location: 
, Alsace
Serving: 
Strasbourg
Elevation: 
505 ft
Coordinates: 
Aerial View: 
48° 32' 17.948" N, 7° 37' 41.639" E
Metar
Observation
LFST 060700Z AUTO 00000KT 7000 OVC023 02/01 Q1015 TEMPO 0400 FG VV///
Station
Strasbourg
Date/Time
2021-12-06 07:00:00
Wind direction
Wind speed
00 kts
Lowest cloud amount
overcast
Temperature
2°C
Dew point
1°C
Humidity
93%
QNH
1015 hPa
Weather condition
n/a

Runways

Designator Length Width Surface Rops
5/23 2400 45 ASP Yes/Yes
Airport map: 
Aerial View: 

Accidents and Serious Incidents at or in the vicinity of LFST

SKYbrary Partners:

Safety knowledge contributed by: